»·PEaware :: SWA2212 KABQ-KDAL

SWA2212 :: KABQ-KDAL

FLIGHT INFORMATION

Flight Status: Arrived
Operator:
Southwest Airlines
More flights by this operator :: More flights under this callsign
Pilot: Drew L. (13237)
Aircraft: BOEING 737-700
(B737)
More flights by this aircraft type
Origin: KABQ Albuquerque Intl Sunport
United States
Destination: KDAL Dallas Love
United States
More flights between these airports :: More routes between these airports
Route: ABQ3 ABQ TXO TURKI JFRYE3
File this flight plan on PilotEdge
Remarks: RMK / SIMBRIEF
Altitude:
(Current/Filed)
37,000ft
Speed:
(Current/Filed)
448kts
Departed: 08-May-19 10:19 PM
Arrived: 08-May-19 11:41 PM
Distance/Time
Traveled:
503nm/1:22
Distance/Time
To Go:
Arrived

Flight Plot

Page will automatically refresh every two minutes.

Flight plan parsing failed; only flown route is shown


Map Options




Map Legend


Flown Route
Filed Route
Departure Airport
Arrival Airport
Navaid (VOR, NDB)
Fix

Horizontal Profiles

Position Reports

Time Latitude Longitude Heading Altitude Ground
Speed
08-May-19 21:54 35.046848 -106.614900 6 5323ft 0kts
08-May-19 21:56 35.046848 -106.614900 6 5323ft 0kts
08-May-19 21:56 35.046848 -106.614900 6 5323ft 0kts
08-May-19 21:58 35.046848 -106.614900 6 5323ft 0kts
08-May-19 21:58 35.046848 -106.614900 6 5323ft 0kts
08-May-19 22:00 35.046848 -106.614900 6 5323ft 0kts
08-May-19 22:00 35.046848 -106.614900 6 5323ft 0kts
08-May-19 22:01 35.046848 -106.614900 6 5323ft 0kts
08-May-19 22:02 35.046848 -106.614900 6 5323ft 0kts
08-May-19 22:03 35.046848 -106.614900 6 5323ft 0kts
08-May-19 22:04 35.046848 -106.614900 6 5323ft 0kts
08-May-19 22:05 35.046848 -106.614900 6 5322ft 0kts
08-May-19 22:06 35.046848 -106.614900 6 5322ft 0kts
08-May-19 22:07 35.046848 -106.614900 6 5322ft 0kts
08-May-19 22:08 35.046848 -106.614900 6 5322ft 0kts
08-May-19 22:09 35.046848 -106.614900 6 5322ft 0kts
08-May-19 22:10 35.046848 -106.614900 6 5323ft 0kts
08-May-19 22:11 35.046774 -106.614912 6 5322ft 2kts
08-May-19 22:12 35.046281 -106.614987 7 5322ft 0kts
08-May-19 22:13 35.046292 -106.614983 15 5322ft 0kts
08-May-19 22:14 35.045793 -106.610325 90 5322ft 32kts
08-May-19 22:15 35.045739 -106.600544 89 5330ft 26kts
08-May-19 22:16 35.045813 -106.590658 90 5341ft 35kts
08-May-19 22:17 35.045735 -106.579937 90 5358ft 30kts
08-May-19 22:18 35.044091 -106.580780 270 5357ft 70kts
08-May-19 22:19 35.044982 -106.630640 270 6905ft 164kts
08-May-19 22:20 35.013147 -106.643534 123 8818ft 192kts
08-May-19 22:21 34.995959 -106.570311 98 10347ft 264kts
08-May-19 22:22 34.983720 -106.467468 97 11838ft 343kts
08-May-19 22:23 34.969551 -106.349159 98 14887ft 363kts
08-May-19 22:24 34.954311 -106.222755 98 17644ft 388kts
08-May-19 22:25 34.938093 -106.089493 98 20305ft 406kts
08-May-19 22:26 34.920995 -105.950411 99 22723ft 423kts
08-May-19 22:27 34.902974 -105.805355 99 24919ft 440kts
08-May-19 22:28 34.883968 -105.654023 99 26911ft 456kts
08-May-19 22:29 34.864260 -105.498839 99 28768ft 470kts
08-May-19 22:30 34.843811 -105.339607 100 30583ft 480kts
08-May-19 22:31 34.823106 -105.179394 100 32667ft 478kts
08-May-19 22:32 34.802389 -105.020806 101 34572ft 474kts
08-May-19 22:33 34.781523 -104.862825 102 36266ft 471kts
08-May-19 22:34 34.760381 -104.704711 102 37031ft 485kts
08-May-19 22:35 34.738529 -104.542984 102 37033ft 481kts
08-May-19 22:36 34.716537 -104.381985 102 37036ft 485kts
08-May-19 22:37 34.694436 -104.221037 103 37025ft 482kts
08-May-19 22:38 34.672094 -104.060223 102 37022ft 482kts
08-May-19 22:39 34.649557 -103.899821 103 37020ft 482kts
08-May-19 22:40 34.626741 -103.739168 103 37020ft 484kts
08-May-19 22:41 34.603778 -103.578747 102 37023ft 483kts
08-May-19 22:42 34.580592 -103.418591 102 37022ft 483kts
08-May-19 22:43 34.557198 -103.258197 103 37025ft 482kts
08-May-19 22:44 34.533819 -103.099069 103 37032ft 469kts
08-May-19 22:45 34.511168 -102.946713 102 37043ft 453kts
08-May-19 22:46 34.490434 -102.797356 99 37041ft 451kts
08-May-19 22:47 34.473436 -102.646623 100 37034ft 455kts
08-May-19 22:48 34.457300 -102.505870 99 37006ft 455kts
08-May-19 22:49 34.440128 -102.354769 99 36995ft 455kts
08-May-19 22:50 34.423161 -102.203232 100 36990ft 455kts
08-May-19 22:51 34.406223 -102.050960 99 36960ft 455kts
08-May-19 22:52 34.389617 -101.899585 99 36941ft 455kts
08-May-19 22:53 34.373165 -101.747829 99 36935ft 454kts
08-May-19 22:54 34.356873 -101.596183 99 36936ft 457kts
08-May-19 22:55 34.340783 -101.444236 99 36936ft 453kts
08-May-19 22:56 34.324869 -101.292893 99 36935ft 456kts
08-May-19 22:57 34.309190 -101.141184 99 36927ft 455kts
08-May-19 22:58 34.292578 -100.989493 102 36925ft 458kts
08-May-19 22:59 34.273431 -100.834389 104 36910ft 474kts
08-May-19 23:00 34.254032 -100.674013 104 36911ft 479kts
08-May-19 23:01 34.234791 -100.513570 104 36912ft 477kts
08-May-19 23:02 34.216259 -100.357365 104 36908ft 467kts
08-May-19 23:03 34.194325 -100.198866 109 36906ft 477kts
08-May-19 23:04 34.165447 -100.043709 109 36912ft 474kts
08-May-19 23:05 34.136837 -99.888513 109 36909ft 476kts
08-May-19 23:06 34.108307 -99.732590 109 36908ft 476kts
08-May-19 23:07 34.079998 -99.576838 109 36901ft 476kts
08-May-19 23:08 34.051872 -99.421028 109 36903ft 475kts
08-May-19 23:09 34.022738 -99.265819 114 36892ft 470kts
08-May-19 23:10 33.979174 -99.117918 118 36878ft 479kts
08-May-19 23:11 33.931533 -98.967811 120 36862ft 479kts
08-May-19 23:12 33.884115 -98.817627 121 35406ft 472kts
08-May-19 23:13 33.841272 -98.681594 122 33473ft 455kts
08-May-19 23:14 33.797246 -98.541401 121 31343ft 446kts
08-May-19 23:15 33.753333 -98.403518 121 29209ft 436kts
08-May-19 23:16 33.711619 -98.275694 120 27134ft 427kts
08-May-19 23:17 33.668977 -98.144554 119 24930ft 418kts
08-May-19 23:18 33.627166 -98.015560 117 22726ft 411kts
08-May-19 23:19 33.586355 -97.889224 116 20535ft 403kts
08-May-19 23:20 33.546340 -97.764962 115 18342ft 395kts
08-May-19 23:21 33.507448 -97.643808 114 16161ft 385kts
08-May-19 23:22 33.469687 -97.525816 113 13983ft 375kts
08-May-19 23:23 33.447852 -97.407751 92 12399ft 350kts
08-May-19 23:24 33.443889 -97.296675 92 11386ft 317kts
08-May-19 23:25 33.439841 -97.194833 92 10369ft 297kts
08-May-19 23:26 33.436020 -97.096271 92 9797ft 296kts
08-May-19 23:27 33.432286 -96.997994 92 9296ft 295kts
08-May-19 23:28 33.421295 -96.901671 115 9034ft 293kts
08-May-19 23:29 33.382005 -96.818816 134 8422ft 279kts
08-May-19 23:30 33.320250 -96.765733 148 7612ft 260kts
08-May-19 23:31 33.260250 -96.717763 152 6592ft 257kts
08-May-19 23:32 33.194487 -96.729850 203 5740ft 245kts
08-May-19 23:33 33.130711 -96.758512 201 4943ft 243kts
08-May-19 23:34 33.070955 -96.783537 200 4169ft 219kts
08-May-19 23:35 33.014452 -96.809276 201 3371ft 215kts
08-May-19 23:36 32.959754 -96.837756 217 3005ft 213kts
08-May-19 23:37 32.922464 -96.888150 228 2615ft 169kts
08-May-19 23:38 32.885703 -96.901530 143 1417ft 146kts
08-May-19 23:39 32.855631 -96.868473 135 642ft 153kts
08-May-19 23:40 32.841149 -96.849969 345 476ft 12kts
08-May-19 23:41 32.841477 -96.850197 314 477ft 10kts
08-May-19 23:43 32.846511 -96.850876 182 486ft 0kts
08-May-19 23:44 32.846511 -96.850876 182 486ft 0kts
08-May-19 23:45 32.864292 -96.878391 134 934ft 145kts
08-May-19 23:46 32.843065 -96.853878 137 478ft 85kts
08-May-19 23:47 32.886695 -96.902341 144 1447ft 147kts
08-May-19 23:48 32.856689 -96.869695 134 678ft 153kts
08-May-19 23:49 32.841849 -96.852488 135 477ft 63kts
08-May-19 23:50 32.849369 -96.861245 134 474ft 148kts
08-May-19 23:51 32.845057 -96.856220 135 475ft 116kts

Navigation Log

Ident Type
Flight plan parsing failed, navigation log unavailable